Time;durP1;ratioP1;P1;durP2;ratioP2;P2;SDS_P1;SDS_P2;PMS_P1;PMS_P2;Temp;Humidity;BMP_temperature;BMP_pressure;BME280_temperature;BME280_humidity;BME280_pressure;Samples;Min_cycle;Max_cycle;Signal;HPM_P1;HPM_P2
2020/12/08 00:02:14;;;;;;;239.53;225.73;;;1.10;99.90;;;;;;5035820;28;20484;-81
2020/12/08 00:04:42;;;;;;;228.37;214.47;;;1.10;99.90;;;;;;5033602;28;20448;-82
2020/12/08 00:07:14;;;;;;;234.63;220.37;;;1.20;99.90;;;;;;5033442;28;20522;-81
2020/12/08 00:09:50;;;;;;;243.77;228.20;;;1.50;99.90;;;;;;5033460;28;20452;-81
2020/12/08 00:12:23;;;;;;;239.00;224.70;;;1.40;99.90;;;;;;5033595;28;20452;-81
2020/12/08 00:14:49;;;;;;;239.53;225.07;;;1.30;99.90;;;;;;5033480;28;20440;-81
2020/12/08 00:19:56;;;;;;;237.90;224.33;;;1.20;99.90;;;;;;5519108;22;20477;-82
2020/12/08 00:22:36;;;;;;;233.97;219.47;;;1.10;99.90;;;;;;5016898;28;20485;-83
2020/12/08 00:25:04;;;;;;;236.20;221.70;;;1.00;99.90;;;;;;5013540;28;20471;-82
2020/12/08 00:27:32;;;;;;;244.37;229.70;;;0.90;99.90;;;;;;5013516;28;20457;-81
2020/12/08 00:29:58;;;;;;;241.83;226.80;;;0.80;99.90;;;;;;5013714;28;20456;-82
2020/12/08 00:32:27;;;;;;;238.20;223.20;;;0.90;99.90;;;;;;5012224;28;21050;-82
2020/12/08 00:34:56;;;;;;;240.47;225.47;;;0.80;99.90;;;;;;5013284;28;20449;-82
2020/12/08 00:37:22;;;;;;;245.57;230.37;;;0.90;99.90;;;;;;5013027;28;20546;-82
2020/12/08 00:39:50;;;;;;;239.87;225.13;;;0.70;99.90;;;;;;5012849;28;20824;-82
2020/12/08 00:44:51;;;;;;;241.40;225.97;;;0.50;99.90;;;;;;5073696;23;20240;-81
2020/12/08 00:47:20;;;;;;;249.50;233.50;;;0.60;99.90;;;;;;4992576;28;20455;-81
2020/12/08 00:49:48;;;;;;;237.20;223.20;;;0.50;99.90;;;;;;4993825;28;20549;-81
2020/12/08 00:52:15;;;;;;;248.05;232.75;;;0.40;99.90;;;;;;4993428;28;20462;-81
2020/12/08 00:54:41;;;;;;;240.00;225.20;;;0.20;99.90;;;;;;4993480;28;20593;-81
2020/12/08 00:57:08;;;;;;;231.27;217.18;;;0.20;99.90;;;;;;4993405;28;20493;-81
2020/12/08 00:59:35;;;;;;;240.83;225.67;;;0.10;99.90;;;;;;4993508;28;20203;-81
2020/12/08 01:02:05;;;;;;;229.75;216.05;;;0.00;99.90;;;;;;4992240;28;20568;-82
2020/12/08 01:04:32;;;;;;;246.87;231.23;;;-0.10;99.90;;;;;;4993298;28;20647;-82
2020/12/08 01:06:58;;;;;;;235.80;220.13;;;0.10;99.90;;;;;;4993469;28;20452;-81
2020/12/08 01:09:27;;;;;;;232.83;217.60;;;0.00;99.90;;;;;;4993396;28;20450;-81
2020/12/08 01:11:54;;;;;;;225.80;209.95;;;-0.10;99.90;;;;;;4993237;28;21023;-82
2020/12/08 01:14:22;;;;;;;228.53;212.93;;;-0.10;99.90;;;;;;4993308;28;20202;-81
2020/12/08 01:16:57;;;;;;;217.43;203.50;;;-0.20;99.90;;;;;;4992360;28;20536;-81
2020/12/08 01:19:28;;;;;;;218.23;203.30;;;-0.30;99.90;;;;;;4993070;28;20449;-81
2020/12/08 01:21:56;;;;;;;227.53;213.57;;;-0.40;99.90;;;;;;4993331;28;20489;-81
2020/12/08 01:24:22;;;;;;;215.13;201.07;;;-0.40;99.90;;;;;;4993333;28;20463;-81
2020/12/08 01:26:50;;;;;;;211.65;198.35;;;-0.30;99.90;;;;;;4993184;28;20458;-81
2020/12/08 01:29:18;;;;;;;210.18;197.60;;;-0.40;99.90;;;;;;4993229;28;20230;-81
2020/12/08 01:31:45;;;;;;;204.47;191.23;;;-0.50;99.90;;;;;;4992240;28;20225;-81
2020/12/08 01:34:16;;;;;;;198.75;186.05;;;-0.60;99.90;;;;;;4993129;28;20458;-81
2020/12/08 01:36:43;;;;;;;204.30;189.60;;;-0.20;99.90;;;;;;4993227;28;20206;-80
2020/12/08 01:39:09;;;;;;;202.32;188.68;;;-0.80;99.90;;;;;;4993124;28;20532;-81
2020/12/08 01:41:36;;;;;;;200.97;187.10;;;-0.80;99.90;;;;;;4993233;28;20223;-81
2020/12/08 01:46:39;;;;;;;193.98;181.05;;;-0.80;99.90;;;;;;5257114;23;20516;-80
2020/12/08 01:49:07;;;;;;;198.93;185.57;;;-0.70;99.90;;;;;;4993545;28;20211;-82
2020/12/08 01:51:33;;;;;;;203.57;188.93;;;-0.50;99.90;;;;;;4996705;28;20569;-82
2020/12/08 01:54:00;;;;;;;210.67;195.33;;;-0.50;99.90;;;;;;4996713;28;21008;-82
2020/12/08 01:56:26;;;;;;;208.00;194.00;;;-0.30;99.90;;;;;;4996559;28;20937;-82
2020/12/08 01:58:52;;;;;;;213.60;198.38;;;-0.20;99.90;;;;;;4996647;28;20513;-82
2020/12/08 02:01:19;;;;;;;212.60;198.40;;;0.10;99.90;;;;;;4996253;28;20273;-82
2020/12/08 02:03:49;;;;;;;222.93;207.80;;;0.10;99.90;;;;;;4995424;28;20508;-82
2020/12/08 02:06:16;;;;;;;214.67;200.03;;;0.10;99.90;;;;;;4996439;28;20516;-82
2020/12/08 02:08:44;;;;;;;211.63;195.57;;;0.10;99.90;;;;;;4996639;28;20462;-82
2020/12/08 02:11:13;;;;;;;218.33;202.03;;;-0.10;99.90;;;;;;4996358;28;20461;-82
2020/12/08 02:13:42;;;;;;;225.13;206.70;;;-0.10;99.90;;;;;;4996197;28;20454;-82
2020/12/08 02:16:14;;;;;;;223.60;206.53;;;-0.10;99.90;;;;;;4996290;28;20469;-82
2020/12/08 02:18:40;;;;;;;229.20;211.70;;;-0.20;99.90;;;;;;4995051;28;20545;-82
2020/12/08 02:21:12;;;;;;;234.75;217.65;;;0.00;99.90;;;;;;4996045;28;20258;-82
2020/12/08 02:23:39;;;;;;;226.83;209.70;;;0.00;99.90;;;;;;4996157;28;20706;-82
2020/12/08 02:26:06;;;;;;;224.07;207.17;;;0.00;99.90;;;;;;4996028;28;21045;-82
2020/12/08 02:28:38;;;;;;;224.10;206.50;;;0.30;99.90;;;;;;4996009;28;20493;-82
2020/12/08 02:31:06;;;;;;;227.43;210.93;;;0.30;99.90;;;;;;4995758;28;20520;-82
2020/12/08 02:33:33;;;;;;;229.13;210.40;;;0.30;99.90;;;;;;4997073;28;20454;-82
2020/12/08 02:36:01;;;;;;;221.13;206.10;;;0.50;99.90;;;;;;4995900;28;20541;-82
2020/12/08 02:38:30;;;;;;;223.27;207.40;;;0.50;99.90;;;;;;4995764;28;20952;-82
2020/12/08 02:40:58;;;;;;;219.93;204.77;;;0.60;99.90;;;;;;4995560;28;20908;-82
2020/12/08 02:43:25;;;;;;;214.20;199.40;;;0.80;99.90;;;;;;4995705;28;20195;-83
2020/12/08 02:45:52;;;;;;;208.17;193.73;;;0.60;99.90;;;;;;4995681;28;20702;-82
2020/12/08 02:48:21;;;;;;;213.93;199.33;;;0.60;99.90;;;;;;4994555;28;20875;-82
2020/12/08 02:50:48;;;;;;;211.97;197.77;;;0.70;99.90;;;;;;4995569;28;20504;-83
2020/12/08 02:53:14;;;;;;;215.77;201.47;;;0.70;99.90;;;;;;4995464;28;20524;-83
2020/12/08 02:55:45;;;;;;;210.73;196.33;;;0.90;99.90;;;;;;4995542;28;20450;-82
2020/12/08 02:58:19;;;;;;;213.10;197.53;;;0.70;99.90;;;;;;4995539;28;20829;-82
2020/12/08 03:00:45;;;;;;;227.33;211.93;;;0.80;99.90;;;;;;4994818;28;20489;-83
2020/12/08 03:03:12;;;;;;;222.13;205.73;;;0.80;99.90;;;;;;4994278;28;20458;-82
2020/12/08 03:05:38;;;;;;;225.48;210.23;;;0.80;99.90;;;;;;4995271;28;20462;-83
2020/12/08 03:08:06;;;;;;;230.57;214.53;;;0.90;99.90;;;;;;4995239;28;20655;-83
2020/12/08 03:10:34;;;;;;;228.13;212.60;;;0.90;99.90;;;;;;4995236;28;20462;-82
2020/12/08 03:13:03;;;;;;;226.20;210.67;;;0.90;99.90;;;;;;4995166;28;20454;-83
2020/12/08 03:15:30;;;;;;;221.17;205.10;;;1.10;99.90;;;;;;4995131;28;20450;-82
2020/12/08 03:17:57;;;;;;;223.90;208.77;;;0.80;99.90;;;;;;4993897;28;20450;-83
2020/12/08 03:20:25;;;;;;;218.27;203.27;;;0.90;99.90;;;;;;4995026;28;20273;-82
2020/12/08 03:22:52;;;;;;;223.90;208.43;;;1.00;99.90;;;;;;4994950;28;20588;-83
2020/12/08 03:25:19;;;;;;;230.70;214.27;;;1.00;99.90;;;;;;4995044;28;20480;-82
2020/12/08 03:27:46;;;;;;;223.03;207.43;;;1.00;99.90;;;;;;4994947;28;20454;-82
2020/12/08 03:30:17;;;;;;;226.40;210.87;;;1.20;99.90;;;;;;4994898;28;20560;-82
2020/12/08 03:32:44;;;;;;;224.90;208.40;;;1.20;99.90;;;;;;4993747;28;20479;-82
2020/12/08 03:35:10;;;;;;;242.13;225.83;;;1.10;99.90;;;;;;4994830;28;20474;-82
2020/12/08 03:37:40;;;;;;;245.23;228.63;;;1.30;99.90;;;;;;4994654;28;20950;-82
2020/12/08 03:40:07;;;;;;;231.90;215.63;;;1.10;99.90;;;;;;4994638;28;20457;-82
2020/12/08 03:42:34;;;;;;;233.77;216.20;;;1.20;99.90;;;;;;4994632;28;20486;-83
2020/12/08 03:45:03;;;;;;;230.82;214.23;;;1.30;99.90;;;;;;4994664;28;20537;-82
2020/12/08 03:47:31;;;;;;;238.10;221.40;;;1.40;99.90;;;;;;4993444;28;20198;-83
2020/12/08 03:49:57;;;;;;;236.47;220.07;;;1.30;99.90;;;;;;4994481;28;20898;-82
2020/12/08 03:52:26;;;;;;;233.40;217.23;;;1.40;99.90;;;;;;4994695;28;20455;-82
2020/12/08 03:54:52;;;;;;;232.60;215.83;;;1.30;99.90;;;;;;4994509;28;21027;-82
2020/12/08 03:57:18;;;;;;;231.80;214.83;;;1.30;99.90;;;;;;4994448;28;20450;-82
2020/12/08 03:59:49;;;;;;;228.90;211.43;;;1.30;99.90;;;;;;4994192;28;20454;-82
2020/12/08 04:02:16;;;;;;;221.30;205.00;;;1.30;99.90;;;;;;4993143;28;20528;-82
2020/12/08 04:04:43;;;;;;;221.80;205.30;;;1.40;99.90;;;;;;4994250;28;20913;-83
2020/12/08 04:07:11;;;;;;;226.73;210.53;;;1.30;99.90;;;;;;4994248;28;20556;-82
2020/12/08 04:09:38;;;;;;;226.63;209.27;;;1.40;99.90;;;;;;4994204;28;20458;-82
2020/12/08 04:12:04;;;;;;;222.83;207.73;;;1.20;99.90;;;;;;4993949;28;20497;-82
2020/12/08 04:14:31;;;;;;;223.33;207.93;;;1.30;99.90;;;;;;4993361;28;20486;-82
2020/12/08 04:16:59;;;;;;;226.90;211.30;;;1.30;99.90;;;;;;4992858;28;20509;-82
2020/12/08 04:19:25;;;;;;;223.57;207.47;;;1.30;99.90;;;;;;4994066;28;20454;-82
2020/12/08 04:21:57;;;;;;;213.60;197.20;;;1.40;99.90;;;;;;4993977;28;20819;-84
2020/12/08 04:24:25;;;;;;;228.53;212.83;;;1.30;99.90;;;;;;4993890;28;20498;-83
2020/12/08 04:26:53;;;;;;;223.07;206.10;;;1.40;99.90;;;;;;4993907;28;20446;-82
2020/12/08 04:29:23;;;;;;;217.60;201.87;;;1.40;99.90;;;;;;4993865;28;20498;-82
2020/12/08 04:31:54;;;;;;;220.10;204.83;;;1.30;99.90;;;;;;4992718;28;20461;-82
2020/12/08 04:34:23;;;;;;;226.80;209.13;;;1.40;99.90;;;;;;4993718;28;20462;-83
2020/12/08 04:36:51;;;;;;;223.17;207.13;;;1.40;99.90;;;;;;4993574;28;20512;-83
2020/12/08 04:39:18;;;;;;;223.60;207.87;;;1.30;99.90;;;;;;4993758;28;20462;-83
2020/12/08 04:42:04;;;;;;;230.80;212.53;;;1.50;99.90;;;;;;4993457;28;20485;-82
2020/12/08 04:44:34;;;;;;;218.20;202.10;;;1.40;99.90;;;;;;4994310;28;20995;-83
2020/12/08 04:47:06;;;;;;;213.50;198.50;;;1.30;99.90;;;;;;4992147;28;21047;-83
2020/12/08 04:49:34;;;;;;;217.67;202.00;;;1.50;99.90;;;;;;4993542;28;20485;-82
2020/12/08 04:52:05;;;;;;;228.87;212.27;;;1.60;99.90;;;;;;4993636;28;20466;-83
2020/12/08 04:54:43;;;;;;;223.17;207.47;;;1.50;99.90;;;;;;4993453;28;20527;-83
2020/12/08 04:57:21;;;;;;;225.57;209.30;;;1.40;99.90;;;;;;4993521;28;20454;-83
2020/12/08 04:59:55;;;;;;;215.67;200.17;;;1.50;99.90;;;;;;4993461;28;20446;-83
2020/12/08 05:02:22;;;;;;;215.43;199.10;;;1.40;99.90;;;;;;4992208;28;20492;-83
2020/12/08 05:04:56;;;;;;;217.10;200.83;;;1.40;99.90;;;;;;4993198;28;20965;-83
2020/12/08 05:07:26;;;;;;;220.33;202.00;;;1.30;99.90;;;;;;4993479;28;21013;-83
2020/12/08 05:09:55;;;;;;;220.63;203.38;;;1.40;99.90;;;;;;4993363;28;20458;-83
2020/12/08 05:12:25;;;;;;;219.53;204.33;;;1.30;99.90;;;;;;4993420;28;20222;-83
2020/12/08 05:14:55;;;;;;;217.10;203.00;;;1.40;99.90;;;;;;4993215;28;20451;-83
2020/12/08 05:17:31;;;;;;;220.33;204.20;;;1.30;99.90;;;;;;4973829;28;20448;-83
2020/12/08 05:20:13;;;;;;;225.90;209.80;;;1.40;99.90;;;;;;4993345;28;20516;-83
2020/12/08 05:22:54;;;;;;;226.83;209.33;;;1.60;99.90;;;;;;4993282;28;20494;-83
2020/12/08 05:25:30;;;;;;;223.20;205.50;;;1.40;99.90;;;;;;4995867;28;20468;-83
2020/12/08 05:28:03;;;;;;;221.67;205.87;;;1.60;99.90;;;;;;4997047;28;20453;-83
2020/12/08 05:30:43;;;;;;;225.47;209.07;;;1.50;99.90;;;;;;4997208;28;20470;-83
2020/12/08 05:36:03;;;;;;;236.87;219.40;;;1.70;99.90;;;;;;4995214;28;20827;-83
2020/12/08 05:38:44;;;;;;;235.57;217.60;;;1.80;99.90;;;;;;4996909;28;20458;-83
2020/12/08 05:41:30;;;;;;;244.63;226.70;;;1.80;99.90;;;;;;4996934;28;20454;-83
2020/12/08 05:44:07;;;;;;;244.03;226.00;;;2.00;99.90;;;;;;4997067;28;20477;-83
2020/12/08 05:46:55;;;;;;;245.17;226.87;;;2.20;99.90;;;;;;4996530;28;20879;-83
2020/12/08 05:49:38;;;;;;;251.70;233.00;;;2.30;99.90;;;;;;4996806;28;20457;-83
2020/12/08 05:52:24;;;;;;;253.67;235.77;;;2.30;99.90;;;;;;4996338;28;20473;-83
2020/12/08 05:55:07;;;;;;;248.50;230.50;;;2.30;99.90;;;;;;4996591;28;20442;-84
2020/12/08 05:57:37;;;;;;;252.47;233.87;;;2.40;99.90;;;;;;4996708;28;20454;-83
2020/12/08 06:00:05;;;;;;;253.40;236.03;;;2.40;99.90;;;;;;4996716;28;20945;-84
2020/12/08 06:02:33;;;;;;;242.97;225.77;;;2.50;99.90;;;;;;4995492;28;21012;-83
2020/12/08 06:05:06;;;;;;;240.50;223.20;;;2.90;99.90;;;;;;4996562;28;20829;-83
2020/12/08 06:07:41;;;;;;;234.53;218.03;;;2.70;99.90;;;;;;4997412;28;20457;-83
2020/12/08 06:10:10;;;;;;;226.10;209.90;;;2.70;99.90;;;;;;4996635;28;20465;-83
2020/12/08 06:12:42;;;;;;;231.03;214.60;;;2.80;99.90;;;;;;4996533;28;20458;-83
2020/12/08 06:15:22;;;;;;;221.60;206.00;;;2.90;99.90;;;;;;4996233;28;20461;-83
2020/12/08 06:18:11;;;;;;;;;;;;;;;;;;;;;
2020/12/08 06:20:53;;;;;;;218.07;202.27;;;3.00;99.90;;;;;;4980675;28;20442;-83
2020/12/08 06:23:32;;;;;;;208.47;194.23;;;3.00;99.90;;;;;;4996119;28;20548;-83
2020/12/08 06:26:00;;;;;;;203.27;189.57;;;3.00;99.90;;;;;;4996254;28;20530;-83
2020/12/08 06:28:39;;;;;;;198.10;184.80;;;3.00;99.90;;;;;;4996032;28;20482;-82
2020/12/08 06:31:12;;;;;;;195.67;182.67;;;3.10;99.90;;;;;;4995998;28;20568;-82
2020/12/08 06:33:56;;;;;;;188.70;175.33;;;3.00;99.90;;;;;;4995623;28;20500;-83
2020/12/08 06:36:31;;;;;;;184.57;171.90;;;3.10;99.90;;;;;;4994967;28;20493;-83
2020/12/08 06:39:16;;;;;;;178.93;167.20;;;3.20;99.90;;;;;;4996068;28;20454;-84
2020/12/08 06:41:55;;;;;;;161.07;150.67;;;3.20;99.90;;;;;;4995939;28;20965;-83
2020/12/08 06:44:40;;;;;;;144.17;134.57;;;3.40;99.90;;;;;;4995768;28;20456;-84
2020/12/08 06:50:23;;;;;;;;;;;;;;;;;;;;;
2020/12/08 06:52:56;;;;;;;84.30;76.80;;;3.40;99.90;;;;;;4995592;28;20946;-83
2020/12/08 06:55:26;;;;;;;70.47;63.97;;;3.40;99.90;;;;;;4995498;28;20486;-83
2020/12/08 06:57:56;;;;;;;56.50;51.10;;;3.30;99.90;;;;;;4995314;28;21013;-83
2020/12/08 07:00:32;;;;;;;54.87;49.63;;;3.40;99.90;;;;;;4995660;28;20473;-82
2020/12/08 07:03:03;;;;;;;47.57;42.40;;;3.50;99.90;;;;;;4994298;28;20486;-83
2020/12/08 07:08:19;;;;;;;38.10;32.03;;;3.50;99.90;;;;;;4994281;28;20454;-83
2020/12/08 07:10:45;;;;;;;34.70;29.20;;;3.30;99.90;;;;;;4995264;28;20457;-83
2020/12/08 07:13:15;;;;;;;35.07;26.83;;;3.30;99.90;;;;;;4995235;28;20486;-83
2020/12/08 07:15:49;;;;;;;33.27;24.70;;;3.30;99.90;;;;;;4995200;28;20820;-83
2020/12/08 07:18:23;;;;;;;28.60;21.80;;;3.30;99.90;;;;;;4993795;28;20450;-82
2020/12/08 07:20:53;;;;;;;33.90;26.00;;;3.40;99.90;;;;;;4995251;28;20463;-82
2020/12/08 07:23:22;;;;;;;26.00;18.27;;;3.40;99.90;;;;;;4995109;28;21075;-83
2020/12/08 07:25:48;;;;;;;26.07;18.40;;;3.50;99.90;;;;;;4994982;28;20454;-82
2020/12/08 07:28:14;;;;;;;22.40;16.07;;;3.40;99.90;;;;;;4994933;28;20506;-83
2020/12/08 07:30:50;;;;;;;27.40;18.03;;;3.40;99.90;;;;;;4995023;28;20442;-82
2020/12/08 07:33:17;;;;;;;26.67;17.40;;;3.40;99.90;;;;;;4993580;28;20461;-83
2020/12/08 07:35:52;;;;;;;27.37;19.60;;;3.40;99.90;;;;;;4994854;28;20465;-82
2020/12/08 07:38:20;;;;;;;31.30;21.23;;;3.40;99.90;;;;;;4994769;28;20446;-82
2020/12/08 07:40:48;;;;;;;29.20;20.13;;;3.50;99.90;;;;;;4994974;28;20450;-84
2020/12/08 07:43:19;;;;;;;30.07;20.17;;;3.40;99.90;;;;;;4994589;28;20921;-83
2020/12/08 07:45:54;;;;;;;29.20;17.97;;;3.10;99.90;;;;;;4994447;28;20565;-83
2020/12/08 07:48:20;;;;;;;28.50;18.30;;;3.40;99.90;;;;;;4993533;28;20458;-83
2020/12/08 07:50:49;;;;;;;27.33;19.83;;;3.40;99.90;;;;;;4992339;28;20447;-83
2020/12/08 07:53:18;;;;;;;29.73;18.03;;;3.30;99.90;;;;;;4993191;28;20461;-83
2020/12/08 07:55:47;;;;;;;30.43;17.83;;;3.40;99.90;;;;;;4991803;28;20450;-82
2020/12/08 07:58:15;;;;;;;28.30;18.40;;;3.60;99.90;;;;;;4993651;28;20484;-83
2020/12/08 08:00:42;;;;;;;29.13;19.00;;;3.40;99.90;;;;;;4994417;28;20458;-82
2020/12/08 08:03:29;;;;;;;29.17;18.47;;;3.50;99.90;;;;;;4992919;28;20482;-82
2020/12/08 08:05:56;;;;;;;29.07;18.87;;;3.50;99.90;;;;;;4994501;28;20450;-82
2020/12/08 08:08:31;;;;;;;29.50;19.47;;;3.50;99.90;;;;;;4994145;28;20450;-83
2020/12/08 08:11:03;;;;;;;25.27;17.77;;;3.50;99.90;;;;;;4994175;28;20826;-82
2020/12/08 08:13:29;;;;;;;29.27;18.23;;;3.40;99.90;;;;;;4994228;28;20957;-82
2020/12/08 08:15:56;;;;;;;22.87;15.53;;;3.40;99.90;;;;;;4992122;28;20996;-81
2020/12/08 08:18:43;;;;;;;24.97;15.60;;;3.50;99.90;;;;;;4991591;28;20458;-82
2020/12/08 08:21:14;;;;;;;27.87;16.87;;;3.60;99.90;;;;;;4991896;28;20450;-82
2020/12/08 08:23:52;;;;;;;25.17;16.40;;;3.60;99.90;;;;;;4994513;28;20844;-82
2020/12/08 08:26:18;;;;;;;23.33;15.10;;;3.60;99.90;;;;;;4992264;28;21004;-83
2020/12/08 08:28:56;;;;;;;;;;;;;;;;;;;;;
2020/12/08 08:31:24;;;;;;;28.87;16.60;;;3.60;99.90;;;;;;4991327;28;20445;-82
2020/12/08 08:36:29;;;;;;;25.73;17.93;;;3.70;99.90;;;;;;4990139;28;20487;-81
2020/12/08 08:38:57;;;;;;;31.30;20.77;;;3.70;99.90;;;;;;4993874;28;20532;-82
2020/12/08 08:41:24;;;;;;;26.97;19.30;;;3.60;99.90;;;;;;4993670;28;20465;-81
2020/12/08 08:43:58;;;;;;;30.87;21.47;;;3.60;99.90;;;;;;4993486;28;20478;-82
2020/12/08 08:46:24;;;;;;;28.73;21.90;;;3.60;99.90;;;;;;4993604;28;21005;-81
2020/12/08 08:49:13;;;;;;;;;;;;;;;;;;;;;
2020/12/08 08:51:56;;;;;;;34.73;29.50;;;3.70;99.90;;;;;;4993729;28;20187;-82
2020/12/08 08:54:59;;;;;;;33.33;24.33;;;3.80;99.90;;;;;;4993640;28;20458;-82
2020/12/08 08:57:26;;;;;;;33.00;27.07;;;4.00;99.90;;;;;;4981583;28;20970;-81
2020/12/08 08:59:56;;;;;;;34.23;23.30;;;3.70;99.90;;;;;;4993102;28;20486;-81
2020/12/08 09:02:31;;;;;;;35.43;22.73;;;4.00;99.90;;;;;;4992104;28;20485;-82
2020/12/08 09:05:13;;;;;;;30.20;20.93;;;4.10;99.90;;;;;;4993616;28;20525;-81
2020/12/08 09:07:55;;;;;;;28.57;20.00;;;4.10;99.90;;;;;;4993427;28;20452;-81
2020/12/08 09:10:25;;;;;;;29.03;18.87;;;4.10;99.90;;;;;;4993634;28;20453;-81
2020/12/08 09:13:08;;;;;;;31.67;19.43;;;4.00;99.90;;;;;;4993503;28;20829;-82
2020/12/08 09:15:34;;;;;;;27.97;18.90;;;4.20;99.90;;;;;;4993470;28;20453;-82
2020/12/08 09:18:11;;;;;;;27.50;19.07;;;4.30;99.90;;;;;;4992066;28;20450;-81
2020/12/08 09:23:30;;;;;;;30.67;19.77;;;4.50;99.90;;;;;;4992242;28;20490;-82
2020/12/08 09:26:07;;;;;;;25.03;17.13;;;4.40;99.90;;;;;;4993245;28;20464;-81
2020/12/08 09:28:38;;;;;;;26.17;16.03;;;4.40;99.90;;;;;;4993216;28;20460;-82
2020/12/08 09:31:19;;;;;;;27.40;18.47;;;4.60;99.90;;;;;;4993285;28;20450;-82
2020/12/08 09:33:57;;;;;;;27.60;17.50;;;4.80;99.90;;;;;;4991896;28;20478;-82
2020/12/08 09:36:43;;;;;;;23.67;15.27;;;4.90;99.00;;;;;;4993137;28;20835;-82
2020/12/08 09:39:36;;;;;;;25.13;16.70;;;4.90;98.00;;;;;;4993394;28;20466;-82
2020/12/08 09:42:30;;;;;;;26.40;17.23;;;5.00;96.30;;;;;;4993319;28;20478;-82
2020/12/08 09:45:15;;;;;;;34.40;18.30;;;5.30;96.40;;;;;;4992152;28;20462;-82
2020/12/08 09:51:38;;;;;;;26.50;17.50;;;5.20;94.70;;;;;;4932924;29;21048;-82
2020/12/08 09:54:12;;;;;;;24.07;15.40;;;5.30;91.20;;;;;;4993094;28;20458;-83
2020/12/08 09:57:32;;;;;;;26.87;16.90;;;5.30;92.70;;;;;;4993227;28;20550;-82
2020/12/08 10:00:19;;;;;;;22.13;15.17;;;5.30;91.40;;;;;;4992957;28;20450;-82
2020/12/08 10:03:39;;;;;;;23.43;16.90;;;5.20;91.00;;;;;;4991565;28;20847;-84
2020/12/08 10:12:51;;;;;;;23.73;16.27;;;5.20;84.40;;;;;;4993219;28;20508;-82
2020/12/08 10:15:51;;;;;;;25.50;15.37;;;5.50;83.40;;;;;;4994341;28;20470;-83
2020/12/08 10:18:42;;;;;;;;;;;;;;;;;;;;;
2020/12/08 10:27:01;;;;;;;26.40;17.23;;;5.90;80.10;;;;;;4996197;28;20462;-83
2020/12/08 10:29:54;;;;;;;22.73;16.10;;;6.10;76.20;;;;;;4996074;28;20454;-83
2020/12/08 10:32:35;;;;;;;24.97;17.03;;;6.30;74.90;;;;;;4994607;28;20458;-83
2020/12/08 10:41:15;;;;;;;22.70;15.30;;;6.30;61.10;;;;;;4988330;28;20462;-83
2020/12/08 10:44:16;;;;;;;22.47;15.73;;;6.20;64.60;;;;;;4995683;28;20567;-83
2020/12/08 10:47:18;;;;;;;20.47;14.47;;;6.30;62.00;;;;;;4982440;28;20489;-84
2020/12/08 10:59:37;;;;;;;22.53;15.73;;;6.30;63.70;;;;;;4995480;28;20477;-82
2020/12/08 11:08:09;;;;;;;24.23;15.90;;;6.10;59.20;;;;;;4994305;28;20454;-83
2020/12/08 11:10:42;;;;;;;23.33;15.77;;;5.90;58.50;;;;;;4995561;28;20449;-83
2020/12/08 11:13:16;;;;;;;29.80;17.70;;;5.60;59.90;;;;;;4996266;28;20461;-82
2020/12/08 11:15:44;;;;;;;25.50;16.80;;;5.80;63.30;;;;;;4995257;28;20500;-82
2020/12/08 11:18:26;;;;;;;26.70;17.37;;;5.70;64.80;;;;;;4993532;28;20460;-83
2020/12/08 11:21:08;;;;;;;21.50;15.07;;;5.80;64.00;;;;;;4995198;28;20860;-83
2020/12/08 11:23:47;;;;;;;24.30;15.27;;;5.80;63.70;;;;;;4994512;28;20486;-84
2020/12/08 11:26:32;;;;;;;24.20;15.00;;;5.90;61.20;;;;;;4995307;28;20485;-83
2020/12/08 11:30:00;;;;;;;24.13;16.52;;;6.00;60.90;;;;;;4993919;28;20460;-86
2020/12/08 11:36:07;;;;;;;19.80;13.07;;;6.60;56.90;;;;;;4929055;28;20472;-84
2020/12/08 11:39:39;;;;;;;23.40;15.10;;;6.40;52.60;;;;;;4958593;28;20452;-84
2020/12/08 11:45:17;;;;;;;20.70;12.97;;;6.40;51.30;;;;;;4976733;28;20487;-85
2020/12/08 11:51:08;;;;;;;22.27;14.40;;;6.60;55.30;;;;;;4994216;28;20453;-85
2020/12/08 11:54:04;;;;;;;22.83;13.70;;;6.40;53.40;;;;;;4994640;28;20850;-84
2020/12/08 12:00:04;;;;;;;22.20;15.10;;;6.50;54.50;;;;;;4993879;28;20481;-84
2020/12/08 12:02:45;;;;;;;22.60;14.50;;;6.60;50.60;;;;;;4993589;28;20482;-84
2020/12/08 12:05:37;;;;;;;25.37;15.30;;;6.40;51.30;;;;;;4994579;28;20465;-84
2020/12/08 12:08:08;;;;;;;20.57;14.40;;;6.30;50.40;;;;;;4990833;28;20548;-84
2020/12/08 12:10:52;;;;;;;21.83;13.37;;;6.50;53.40;;;;;;4994519;28;20438;-84
2020/12/08 12:13:34;;;;;;;21.33;13.90;;;6.30;51.60;;;;;;4994406;28;20450;-84
2020/12/08 12:16:09;;;;;;;23.33;13.87;;;6.40;51.40;;;;;;4994195;28;20446;-84
2020/12/08 12:19:24;;;;;;;;;;;;;;;;;;;;;
2020/12/08 12:22:13;;;;;;;;;;;;;;;;;;;;;
2020/12/08 12:24:47;;;;;;;22.77;14.50;;;6.50;54.30;;;;;;4983464;28;20481;-84
2020/12/08 12:27:19;;;;;;;21.83;14.83;;;6.50;52.40;;;;;;4993553;28;20460;-84
2020/12/08 12:30:09;;;;;;;20.70;13.33;;;6.50;50.80;;;;;;4993752;28;20458;-84
2020/12/08 12:33:20;;;;;;;26.50;14.77;;;6.80;50.70;;;;;;4992849;28;20457;-84
2020/12/08 12:36:01;;;;;;;21.70;14.50;;;6.70;50.50;;;;;;4993080;28;21003;-84
2020/12/08 12:38:44;;;;;;;21.90;13.67;;;6.80;50.10;;;;;;4993690;28;20489;-84
2020/12/08 12:41:31;;;;;;;;;;;;;;;;;;;;;
2020/12/08 12:44:35;;;;;;;;;;;;;;;;;;;;;
2020/12/08 12:53:49;;;;;;;18.17;12.10;;;6.50;42.60;;;;;;4969144;28;20973;-85
2020/12/08 12:59:13;;;;;;;16.43;11.73;;;6.70;48.50;;;;;;4992393;28;20482;-84
2020/12/08 13:01:47;;;;;;;19.33;13.13;;;6.70;48.70;;;;;;4993563;28;20497;-85
2020/12/08 13:04:23;;;;;;;16.93;11.00;;;6.60;46.00;;;;;;4992460;28;20488;-84
2020/12/08 13:06:55;;;;;;;19.70;11.73;;;6.40;45.00;;;;;;4993333;28;20450;-83
2020/12/08 13:09:39;;;;;;;18.40;12.40;;;6.50;47.60;;;;;;4993372;28;20530;-84
2020/12/08 13:12:38;;;;;;;17.60;12.13;;;6.20;46.20;;;;;;4993249;28;20522;-83
2020/12/08 13:22:06;;;;;;;;;;;;;;;;;;;;;
2020/12/08 14:16:55;;;;;;;;;;;;;;;;;;;;;
2020/12/08 14:32:15;;;;;;;;;;;;;;;;;;;;;
2020/12/08 14:48:37;;;;;;;17.73;11.40;;;5.50;56.90;;;;;;4913754;29;20544;-83
2020/12/08 14:51:27;;;;;;;;;;;;;;;;;;;;;
2020/12/08 14:57:38;;;;;;;22.40;12.60;;;5.30;63.00;;;;;;4927112;29;20560;-83
2020/12/08 15:00:19;;;;;;;;;;;;;;;;;;;;;
2020/12/08 15:54:01;;;;;;;17.47;11.63;;;4.60;76.80;;;;;;4751871;29;20448;-86
2020/12/08 15:56:45;;;;;;;21.53;13.87;;;4.70;81.10;;;;;;4798731;29;20234;-86
2020/12/08 15:59:16;;;;;;;17.40;12.20;;;4.70;81.20;;;;;;4795233;29;20466;-86
2020/12/08 16:01:45;;;;;;;25.40;13.73;;;4.80;81.40;;;;;;4804933;29;20471;-87
2020/12/08 16:04:11;;;;;;;23.83;14.30;;;4.70;80.30;;;;;;4931204;29;20532;-86
2020/12/08 16:06:42;;;;;;;27.80;14.63;;;4.50;81.70;;;;;;4932791;29;20500;-86
2020/12/08 16:12:43;;;;;;;23.93;16.60;;;4.70;86.90;;;;;;4984262;28;20544;-86
2020/12/08 16:15:17;;;;;;;27.83;16.87;;;4.70;90.30;;;;;;4992100;28;20541;-85
2020/12/08 16:17:53;;;;;;;24.23;16.60;;;4.70;88.70;;;;;;4992850;28;20454;-85
2020/12/08 16:20:27;;;;;;;24.70;15.83;;;4.70;88.40;;;;;;4975782;28;20977;-86
2020/12/08 16:23:10;;;;;;;21.80;15.13;;;4.60;88.70;;;;;;4984147;28;21083;-87
2020/12/08 16:25:49;;;;;;;;;;;;;;;;;;;;;
2020/12/08 16:39:26;;;;;;;;;;;;;;;;;;;;;
2020/12/08 16:42:02;;;;;;;26.17;18.17;;;4.60;97.50;;;;;;4837210;29;20558;-89
2020/12/08 16:54:28;;;;;;;26.90;17.77;;;4.50;99.90;;;;;;4803985;29;20994;-84
2020/12/08 16:57:23;;;;;;;27.77;19.83;;;4.50;99.90;;;;;;4876860;29;20818;-86
2020/12/08 17:00:22;;;;;;;28.83;18.03;;;4.50;99.90;;;;;;4930699;29;20485;-86
2020/12/08 17:06:05;;;;;;;28.13;19.70;;;4.60;99.90;;;;;;4979004;28;20462;-86
2020/12/08 17:08:39;;;;;;;26.30;20.00;;;4.40;99.90;;;;;;4973787;28;20484;-86
2020/12/08 17:11:21;;;;;;;;;;;;;;;;;;;;;
2020/12/08 17:13:48;;;;;;;26.37;21.10;;;4.40;99.90;;;;;;4993258;28;20458;-84
2020/12/08 17:16:38;;;;;;;24.40;20.73;;;4.40;99.90;;;;;;4980287;28;20457;-86
2020/12/08 17:19:20;;;;;;;;;;;;;;;;;;;;;
2020/12/08 17:21:54;;;;;;;26.20;22.77;;;4.40;99.90;;;;;;4961400;28;20533;-86
2020/12/08 17:24:22;;;;;;;31.47;25.70;;;4.40;99.90;;;;;;4995985;28;20484;-86
2020/12/08 17:27:22;;;;;;;27.17;24.30;;;4.40;99.90;;;;;;4996845;28;20458;-86
2020/12/08 17:29:50;;;;;;;27.73;23.80;;;4.50;99.90;;;;;;4997394;28;20446;-84
2020/12/08 17:32:16;;;;;;;30.80;25.43;;;4.50;99.90;;;;;;4991995;28;20475;-85
2020/12/08 17:34:43;;;;;;;29.70;26.40;;;4.50;99.90;;;;;;4977768;28;20465;-86
2020/12/08 17:37:15;;;;;;;32.57;29.07;;;4.30;99.90;;;;;;4977710;28;20482;-85